Time;durP1;ratioP1;P1;durP2;ratioP2;P2;SDS_P1;SDS_P2;PMS_P1;PMS_P2;Temp;Humidity;BMP_temperature;BMP_pressure;BME280_temperature;BME280_humidity;BME280_pressure;Samples;Min_cycle;Max_cycle;Signal;HPM_P1;HPM_P2
2023/11/29 00:00:49;;;;;;;9.70;1.80;;;;;;;7.96;64.81;100388.63;5009998;28;20034;-48
2023/11/29 00:03:15;;;;;;;7.63;1.80;;;;;;;8.18;64.46;100375.13;5010500;28;20025;-49
2023/11/29 00:05:40;;;;;;;6.32;1.60;;;;;;;8.19;63.02;100373.41;5010314;28;20073;-48
2023/11/29 00:08:05;;;;;;;8.02;1.70;;;;;;;8.32;61.97;100365.84;5009433;28;20450;-48
2023/11/29 00:10:31;;;;;;;3.85;1.50;;;;;;;8.28;62.35;100363.16;5009757;28;20030;-45
2023/11/29 00:12:57;;;;;;;6.00;2.10;;;;;;;8.06;61.78;100356.78;5009910;28;20184;-48
2023/11/29 00:15:23;;;;;;;6.18;1.30;;;;;;;7.95;61.39;100368.72;5009962;28;20640;-49
2023/11/29 00:17:49;;;;;;;7.03;1.35;;;;;;;8.33;61.01;100345.97;5009866;28;20125;-47
2023/11/29 00:20:14;;;;;;;5.85;1.30;;;;;;;8.09;59.47;100365.50;5007976;28;20121;-47
2023/11/29 00:22:40;;;;;;;6.90;1.60;;;;;;;8.29;60.07;100344.16;5010129;28;20040;-47
2023/11/29 00:25:06;;;;;;;3.63;1.30;;;;;;;8.39;59.62;100341.72;5009202;28;20026;-45
2023/11/29 00:27:31;;;;;;;3.38;1.15;;;;;;;8.64;58.36;100336.84;5010055;28;20555;-46
2023/11/29 00:29:56;;;;;;;5.03;1.52;;;;;;;8.12;60.33;100330.91;5009203;28;20034;-48
2023/11/29 00:32:22;;;;;;;7.05;1.40;;;;;;;8.30;57.65;100326.00;5009868;28;20042;-46
2023/11/29 00:34:47;;;;;;;5.10;1.10;;;;;;;8.20;57.79;100331.91;5010075;28;20033;-45
2023/11/29 00:37:13;;;;;;;4.40;1.20;;;;;;;8.32;55.89;100326.03;5009361;28;20130;-48
2023/11/29 00:39:39;;;;;;;7.03;1.48;;;;;;;8.18;56.91;100322.31;5009603;28;20420;-47
2023/11/29 00:42:04;;;;;;;4.93;1.33;;;;;;;8.23;55.30;100311.19;5009283;28;20420;-46
2023/11/29 00:44:30;;;;;;;3.10;1.30;;;;;;;8.42;56.03;100307.97;5009556;28;20037;-47
2023/11/29 00:46:55;;;;;;;7.05;1.30;;;;;;;8.67;56.01;100306.56;5011246;28;20038;-52
2023/11/29 00:49:20;;;;;;;5.05;1.30;;;;;;;8.55;55.70;100309.88;5013054;28;20030;-46
2023/11/29 00:51:46;;;;;;;6.90;1.40;;;;;;;8.80;55.11;100304.97;5012855;28;20049;-49
2023/11/29 00:54:11;;;;;;;7.18;1.48;;;;;;;8.72;56.52;100306.63;5012803;28;20407;-48
2023/11/29 00:56:37;;;;;;;4.35;1.05;;;;;;;8.55;53.98;100303.81;5013078;28;20081;-46
2023/11/29 00:59:02;;;;;;;5.30;1.50;;;;;;;8.37;55.55;100307.06;5012711;28;20038;-47
2023/11/29 01:01:28;;;;;;;5.97;1.50;;;;;;;8.52;55.52;100307.28;5011994;28;20123;-46
2023/11/29 01:03:53;;;;;;;5.10;1.20;;;;;;;8.29;55.65;100311.25;5013044;28;20415;-45
2023/11/29 01:06:19;;;;;;;3.40;1.27;;;;;;;8.19;53.41;100304.19;5013236;28;20511;-49
2023/11/29 01:08:45;;;;;;;3.22;1.10;;;;;;;8.45;53.03;100282.06;5012898;28;20038;-47
2023/11/29 01:11:10;;;;;;;2.72;0.98;;;;;;;8.56;52.35;100292.56;5012675;28;20072;-50
2023/11/29 01:13:35;;;;;;;5.38;1.23;;;;;;;8.20;52.86;100274.78;5012944;28;20042;-46
2023/11/29 01:16:01;;;;;;;4.32;1.20;;;;;;;8.32;53.56;100284.47;5011087;28;20389;-48
2023/11/29 01:18:32;;;;;;;4.70;1.50;;;;;;;8.47;53.81;100269.97;5013077;28;20033;-50
2023/11/29 01:20:57;;;;;;;8.52;1.27;;;;;;;8.14;54.06;100278.16;5012704;28;20460;-47
2023/11/29 01:23:23;;;;;;;5.10;1.30;;;;;;;8.69;54.34;100278.88;5012791;28;20116;-48
2023/11/29 01:25:48;;;;;;;6.53;1.50;;;;;;;8.24;54.42;100286.94;5012596;28;20034;-47
2023/11/29 01:28:13;;;;;;;6.70;1.73;;;;;;;8.54;54.14;100278.69;5012420;28;20129;-47
2023/11/29 01:30:39;;;;;;;5.13;1.52;;;;;;;8.44;54.09;100276.84;5012787;28;20045;-50
2023/11/29 01:33:04;;;;;;;7.07;1.88;;;;;;;8.74;54.03;100277.19;5012664;28;20081;-47
2023/11/29 01:35:29;;;;;;;7.65;2.08;;;;;;;8.39;54.03;100284.59;5013472;28;20025;-46
2023/11/29 01:37:55;;;;;;;6.70;1.85;;;;;;;8.48;53.89;100276.88;5012303;28;20409;-44
2023/11/29 01:40:20;;;;;;;7.25;2.03;;;;;;;8.55;54.02;100272.63;5012861;28;20033;-47
2023/11/29 01:42:45;;;;;;;6.22;1.70;;;;;;;8.51;53.26;100271.75;5012833;28;20040;-47
2023/11/29 01:45:11;;;;;;;4.03;1.33;;;;;;;8.28;53.07;100261.91;5012188;28;20420;-48
2023/11/29 01:47:37;;;;;;;4.72;1.50;;;;;;;8.23;52.68;100264.44;5012725;28;20447;-48
2023/11/29 01:50:07;;;;;;;6.97;1.58;;;;;;;8.27;53.17;100263.63;5012308;28;20049;-48
2023/11/29 01:52:34;;;;;;;6.53;1.55;;;;;;;8.33;52.78;100268.03;5012444;28;20048;-46
2023/11/29 01:55:01;;;;;;;5.03;1.30;;;;;;;8.24;52.62;100257.50;5011751;28;20038;-45
2023/11/29 01:57:26;;;;;;;6.60;1.45;;;;;;;8.42;51.30;100257.75;5012012;28;20034;-50
2023/11/29 01:59:52;;;;;;;8.77;1.48;;;;;;;8.78;50.99;100272.91;5012296;28;20026;-46
2023/11/29 02:02:18;;;;;;;3.58;1.40;;;;;;;8.37;50.48;100267.22;5010045;28;20034;-46
2023/11/29 02:04:44;;;;;;;5.20;1.35;;;;;;;8.90;50.69;100265.25;5012067;28;20030;-47
2023/11/29 02:07:11;;;;;;;5.25;1.30;;;;;;;8.88;50.56;100256.56;5011431;28;20030;-48
2023/11/29 02:09:37;;;;;;;7.32;1.88;;;;;;;8.59;51.02;100255.38;5012028;28;20034;-46
2023/11/29 02:12:04;;;;;;;6.72;1.30;;;;;;;8.85;50.19;100259.97;5012599;28;20394;-48
2023/11/29 02:14:30;;;;;;;10.07;1.40;;;;;;;8.82;51.98;100264.28;5013480;28;20043;-44
2023/11/29 02:16:55;;;;;;;11.35;1.92;;;;;;;8.55;59.43;100272.63;5013000;28;20046;-48
2023/11/29 02:19:21;;;;;;;8.38;1.20;;;;;;;8.35;61.49;100259.44;5012034;28;20033;-50
2023/11/29 02:21:46;;;;;;;7.10;1.40;;;;;;;7.96;63.95;100277.03;5012190;28;20044;-46
2023/11/29 02:24:17;;;;;;;13.15;1.80;;;;;;;8.08;64.98;100282.38;5011348;28;20030;-48
2023/11/29 02:26:43;;;;;;;4.05;0.93;;;;;;;7.39;66.18;100297.72;5012435;28;20034;-45
2023/11/29 02:29:09;;;;;;;1.88;0.90;;;;;;;7.17;68.62;100306.88;5011505;28;20041;-45
2023/11/29 02:31:35;;;;;;;4.65;1.00;;;;;;;6.93;70.54;100286.56;5011947;28;20042;-46
2023/11/29 02:34:03;;;;;;;4.38;1.10;;;;;;;6.78;71.50;100257.78;5011254;28;20543;-45
2023/11/29 02:36:29;;;;;;;2.88;0.90;;;;;;;6.53;72.00;100259.00;5012218;28;20423;-48
2023/11/29 02:38:54;;;;;;;2.70;1.25;;;;;;;6.89;70.37;100261.47;5011790;28;20037;-46
2023/11/29 02:41:19;;;;;;;2.58;0.80;;;;;;;6.80;70.37;100256.09;5012126;28;20485;-49
2023/11/29 02:43:45;;;;;;;7.70;1.00;;;;;;;7.00;69.90;100251.28;5012217;28;20042;-45
2023/11/29 02:46:10;;;;;;;6.90;1.20;;;;;;;6.83;70.92;100251.81;5012245;28;20045;-47
2023/11/29 02:48:35;;;;;;;5.25;1.20;;;;;;;7.03;70.52;100247.00;5011481;28;20404;-47
2023/11/29 02:51:01;;;;;;;7.55;1.35;;;;;;;7.20;69.71;100230.00;5012568;28;20108;-48
2023/11/29 02:53:26;;;;;;;6.55;1.70;;;;;;;7.30;69.92;100216.38;5011705;28;20022;-49
2023/11/29 02:55:52;;;;;;;7.80;1.55;;;;;;;7.24;69.83;100215.41;5011437;28;20393;-46
2023/11/29 02:58:17;;;;;;;6.07;1.50;;;;;;;7.48;69.16;100212.31;5010802;28;20041;-44
2023/11/29 03:00:43;;;;;;;8.05;1.70;;;;;;;7.82;68.62;100198.97;5011145;28;20057;-49
2023/11/29 03:03:08;;;;;;;11.10;1.38;;;;;;;7.78;68.38;100199.78;5010326;28;20718;-47
2023/11/29 03:05:33;;;;;;;8.77;1.60;;;;;;;7.93;67.22;100193.94;5010881;28;20049;-48
2023/11/29 03:07:59;;;;;;;6.38;1.33;;;;;;;7.64;68.35;100196.13;5010079;28;20164;-51
2023/11/29 03:10:24;;;;;;;10.80;1.67;;;;;;;7.52;68.17;100190.75;5010027;28;20455;-47
2023/11/29 03:12:49;;;;;;;9.32;1.50;;;;;;;7.17;68.75;100178.13;5010702;28;20111;-46
2023/11/29 03:15:15;;;;;;;6.05;1.30;;;;;;;7.67;67.58;100185.81;5010813;28;20100;-46
2023/11/29 03:17:41;;;;;;;7.15;1.30;;;;;;;7.68;67.11;100179.78;5010677;28;20034;-46
2023/11/29 03:20:08;;;;;;;7.05;1.38;;;;;;;7.79;65.70;100183.38;5009805;28;20569;-45
2023/11/29 03:22:33;;;;;;;5.47;1.75;;;;;;;7.98;65.25;100174.97;5010662;28;20038;-46
2023/11/29 03:24:59;;;;;;;9.50;1.73;;;;;;;8.02;65.60;100175.88;5009863;28;20036;-46
2023/11/29 03:27:24;;;;;;;6.60;1.52;;;;;;;8.18;65.49;100175.19;5010650;28;20053;-48
2023/11/29 03:29:49;;;;;;;7.75;1.50;;;;;;;7.90;65.52;100218.13;5010769;28;20062;-47
2023/11/29 03:32:15;;;;;;;7.85;1.20;;;;;;;7.60;64.59;100200.41;5010939;28;20038;-48
2023/11/29 03:34:40;;;;;;;4.57;0.95;;;;;;;6.89;65.75;100200.13;5011337;28;20552;-48
2023/11/29 03:37:05;;;;;;;2.67;0.80;;;;;;;7.35;64.75;100185.31;5013573;28;20528;-46
2023/11/29 03:39:30;;;;;;;6.32;1.00;;;;;;;7.32;64.93;100180.94;5014089;28;20041;-46
2023/11/29 03:41:56;;;;;;;8.63;0.90;;;;;;;6.87;67.32;100178.50;5013471;28;20033;-50
2023/11/29 03:44:21;;;;;;;6.55;1.00;;;;;;;6.83;67.76;100173.25;5010595;28;20030;-44
2023/11/29 03:46:46;;;;;;;4.82;0.90;;;;;;;6.95;68.03;100165.69;5010634;28;20108;-46
2023/11/29 03:49:12;;;;;;;5.45;1.40;;;;;;;7.23;67.98;100161.81;5009896;28;20088;-48
2023/11/29 03:51:37;;;;;;;6.05;1.30;;;;;;;7.10;67.73;100165.91;5010351;28;20056;-46
2023/11/29 03:54:02;;;;;;;7.43;1.00;;;;;;;6.97;67.33;100158.78;5009805;28;20126;-49
2023/11/29 03:56:28;;;;;;;6.65;1.00;;;;;;;7.11;67.93;100152.13;5010288;28;20033;-47
2023/11/29 03:58:53;;;;;;;4.25;1.00;;;;;;;7.33;68.00;100155.91;5010037;28;20056;-48
2023/11/29 04:01:18;;;;;;;6.97;1.08;;;;;;;7.06;68.92;100155.50;5010137;28;20057;-45
2023/11/29 04:03:44;;;;;;;4.85;1.23;;;;;;;7.25;69.27;100154.94;5010474;28;20501;-45
2023/11/29 04:06:09;;;;;;;7.75;1.20;;;;;;;7.14;68.74;100149.56;5009828;28;20034;-49
2023/11/29 04:08:35;;;;;;;11.82;1.25;;;;;;;6.97;69.78;100152.72;5010090;28;20057;-45
2023/11/29 04:11:00;;;;;;;7.35;1.30;;;;;;;7.16;68.79;100140.09;5009697;28;20041;-46
2023/11/29 04:13:26;;;;;;;7.53;0.98;;;;;;;7.27;67.87;100132.47;5009837;28;20034;-49
2023/11/29 04:15:51;;;;;;;6.72;1.10;;;;;;;6.83;66.88;100134.41;5009758;28;20037;-46
2023/11/29 04:18:16;;;;;;;3.15;0.70;;;;;;;6.90;66.32;100128.44;5009642;28;20133;-46
2023/11/29 04:20:42;;;;;;;3.58;0.60;;;;;;;7.50;66.05;100112.06;5012000;28;20053;-48
2023/11/29 04:23:07;;;;;;;4.57;0.70;;;;;;;7.52;65.87;100107.75;5013587;28;20095;-45
2023/11/29 04:25:32;;;;;;;7.30;0.80;;;;;;;7.40;66.97;100116.25;5013485;28;20476;-46
2023/11/29 04:27:58;;;;;;;8.98;0.80;;;;;;;7.35;67.48;100130.88;5013359;28;20026;-50
2023/11/29 04:30:23;;;;;;;2.38;0.70;;;;;;;7.72;65.60;100140.91;5013205;28;20038;-48
2023/11/29 04:32:49;;;;;;;4.20;0.75;;;;;;;7.31;67.00;100147.25;5014152;28;20377;-47
2023/11/29 04:35:14;;;;;;;4.25;0.95;;;;;;;7.51;67.67;100127.63;5013367;28;20068;-46
2023/11/29 04:37:39;;;;;;;7.45;1.00;;;;;;;6.90;68.87;100126.72;5012638;28;20053;-47
2023/11/29 04:40:05;;;;;;;7.35;0.85;;;;;;;7.03;67.33;100119.13;5013186;28;20038;-47
2023/11/29 04:42:31;;;;;;;10.45;1.20;;;;;;;7.42;65.79;100117.16;5013562;28;20050;-48
2023/11/29 04:44:56;;;;;;;5.95;0.80;;;;;;;7.25;65.46;100136.78;5013106;28;20066;-45
2023/11/29 04:47:23;;;;;;;9.57;1.00;;;;;;;7.28;66.89;100145.47;5013678;28;20037;-45
2023/11/29 04:49:49;;;;;;;8.88;0.65;;;;;;;7.29;66.96;100142.03;5013412;28;20042;-49
2023/11/29 04:52:14;;;;;;;4.30;0.70;;;;;;;7.11;67.50;100123.59;5012912;28;20034;-50
2023/11/29 04:54:39;;;;;;;5.75;0.73;;;;;;;6.82;67.24;100151.66;5013635;28;20496;-47
2023/11/29 04:57:05;;;;;;;5.28;0.60;;;;;;;7.02;67.77;100161.44;5012751;28;20040;-46
2023/11/29 04:59:31;;;;;;;6.75;0.60;;;;;;;6.91;68.68;100153.50;5013133;28;20038;-47
2023/11/29 05:01:57;;;;;;;3.10;0.80;;;;;;;6.96;69.16;100140.63;5012946;28;20092;-49
2023/11/29 05:04:23;;;;;;;2.85;0.50;;;;;;;6.70;70.02;100154.03;5028262;28;20048;-47
2023/11/29 05:06:48;;;;;;;1.50;0.40;;;;;;;6.83;68.92;100135.25;5013675;28;20034;-47
2023/11/29 05:09:14;;;;;;;3.60;0.70;;;;;;;6.88;68.17;100127.56;5012385;28;20037;-46
2023/11/29 05:11:40;;;;;;;4.78;0.50;;;;;;;7.22;66.54;100123.75;5013114;28;20052;-53
2023/11/29 05:14:06;;;;;;;2.40;0.60;;;;;;;6.93;67.23;100123.31;5012468;28;20480;-45
2023/11/29 05:16:31;;;;;;;3.50;0.60;;;;;;;7.14;65.85;100118.44;5012761;28;20048;-46
2023/11/29 05:18:57;;;;;;;1.92;0.40;;;;;;;7.45;64.93;100127.56;5012504;28;20026;-48
2023/11/29 05:21:22;;;;;;;5.32;0.70;;;;;;;7.24;65.42;100122.94;5013034;28;20045;-47
2023/11/29 05:23:48;;;;;;;4.35;0.70;;;;;;;7.47;64.68;100138.81;5012935;28;20063;-45
2023/11/29 05:26:14;;;;;;;9.05;0.70;;;;;;;7.74;64.56;100139.19;5012298;28;20046;-47
2023/11/29 05:28:39;;;;;;;9.70;0.73;;;;;;;8.18;63.17;100131.06;5013545;28;20120;-47
2023/11/29 05:31:05;;;;;;;5.38;0.70;;;;;;;7.73;65.76;100141.78;5011224;28;20125;-50
2023/11/29 05:33:30;;;;;;;5.25;0.80;;;;;;;7.91;65.14;100125.56;5012150;28;20037;-47
2023/11/29 05:35:56;;;;;;;3.75;0.80;;;;;;;7.70;65.99;100133.94;5012270;28;20041;-48
2023/11/29 05:38:23;;;;;;;5.72;0.85;;;;;;;7.74;65.18;100134.00;5012547;28;20036;-48
2023/11/29 05:40:49;;;;;;;5.95;1.00;;;;;;;8.15;64.69;100138.84;5013186;28;20038;-44
2023/11/29 05:43:14;;;;;;;7.88;0.77;;;;;;;8.12;64.19;100138.78;5012811;28;20408;-47
2023/11/29 05:45:39;;;;;;;3.45;0.70;;;;;;;8.31;62.74;100138.16;5012697;28;20038;-49
2023/11/29 05:48:05;;;;;;;5.93;1.00;;;;;;;8.23;63.91;100131.13;5012637;28;20045;-47
2023/11/29 05:50:30;;;;;;;6.30;1.05;;;;;;;8.04;63.82;100146.50;5013390;28;20387;-46
2023/11/29 05:52:56;;;;;;;5.68;1.10;;;;;;;7.83;63.43;100143.63;5011742;28;20042;-48
2023/11/29 05:55:22;;;;;;;6.15;0.90;;;;;;;8.10;62.49;100141.38;5012657;28;20053;-46
2023/11/29 05:57:48;;;;;;;5.13;1.02;;;;;;;7.54;61.92;100155.34;5012969;28;20036;-53
2023/11/29 06:00:14;;;;;;;4.78;1.10;;;;;;;7.94;60.73;100157.59;5013456;28;20087;-51
2023/11/29 06:02:40;;;;;;;7.85;1.23;;;;;;;8.28;59.61;100161.50;5013748;28;20033;-52
2023/11/29 06:05:07;;;;;;;9.27;1.42;;;;;;;8.12;59.54;100157.81;5012934;28;20037;-45
2023/11/29 06:07:34;;;;;;;7.20;2.30;;;;;;;7.96;60.60;100166.28;5012492;28;20049;-47
2023/11/29 06:10:00;;;;;;;5.43;1.13;;;;;;;8.31;59.26;100173.66;5011286;28;20041;-46
2023/11/29 06:12:25;;;;;;;6.38;1.20;;;;;;;8.01;59.70;100164.63;5011987;28;20038;-47
2023/11/29 06:14:50;;;;;;;8.40;1.23;;;;;;;8.46;58.76;100166.03;5011964;28;20045;-47
2023/11/29 06:17:16;;;;;;;8.75;1.20;;;;;;;8.21;59.58;100164.88;5009932;28;20041;-47
2023/11/29 06:19:44;;;;;;;7.72;1.30;;;;;;;7.93;59.55;100170.59;5011713;28;20037;-48
2023/11/29 06:22:10;;;;;;;14.88;1.30;;;;;;;8.11;59.29;100170.81;5011015;28;20038;-45
2023/11/29 06:24:35;;;;;;;5.35;1.33;;;;;;;8.51;58.57;100178.22;5012724;28;20036;-46
2023/11/29 06:27:01;;;;;;;6.05;1.30;;;;;;;8.38;58.41;100189.31;5013116;28;20049;-43
2023/11/29 06:29:26;;;;;;;6.90;1.23;;;;;;;8.52;58.35;100215.47;5011898;28;20045;-48
2023/11/29 06:31:51;;;;;;;5.22;1.10;;;;;;;8.11;60.59;100233.13;5012305;28;20408;-46
2023/11/29 06:34:16;;;;;;;3.90;0.98;;;;;;;7.80;61.85;100242.22;5010789;28;20061;-46
2023/11/29 06:36:42;;;;;;;5.25;0.85;;;;;;;7.76;61.71;100235.22;5011603;28;20034;-47
2023/11/29 06:39:09;;;;;;;7.90;1.10;;;;;;;7.86;61.06;100231.91;5011489;28;20480;-49
2023/11/29 06:41:35;;;;;;;7.05;1.00;;;;;;;7.60;61.67;100235.84;5011604;28;20042;-46
2023/11/29 06:44:00;;;;;;;3.38;1.00;;;;;;;8.01;60.47;100233.84;5010783;28;20475;-46
2023/11/29 06:46:25;;;;;;;6.80;1.05;;;;;;;7.96;59.81;100243.28;5011471;28;20034;-49
2023/11/29 06:48:51;;;;;;;3.85;0.95;;;;;;;7.84;59.90;100249.19;5011117;28;20065;-50
2023/11/29 06:51:16;;;;;;;3.20;0.70;;;;;;;7.71;59.66;100247.25;5010372;28;20184;-48
2023/11/29 06:53:41;;;;;;;2.78;0.73;;;;;;;7.34;60.54;100251.00;5011094;28;20115;-49
2023/11/29 06:56:08;;;;;;;5.15;0.80;;;;;;;7.49;59.42;100252.97;5010597;28;20034;-48
2023/11/29 06:58:33;;;;;;;3.95;0.70;;;;;;;7.53;58.46;100253.03;5011248;28;20033;-46
2023/11/29 07:00:58;;;;;;;1.63;0.70;;;;;;;7.50;58.39;100245.19;5010911;28;20037;-49
2023/11/29 07:03:26;;;;;;;3.10;0.57;;;;;;;7.62;57.90;100247.97;5011445;28;20125;-47
2023/11/29 07:05:58;;;;;;;4.00;0.73;;;;;;;7.37;58.57;100260.56;5072699;27;20398;-46
2023/11/29 07:08:23;;;;;;;2.60;0.85;;;;;;;7.26;58.51;100255.16;5067095;28;20398;-46
2023/11/29 07:10:48;;;;;;;2.38;0.80;;;;;;;7.26;58.19;100258.63;5059355;28;20037;-50
2023/11/29 07:13:14;;;;;;;1.80;0.63;;;;;;;7.23;58.27;100253.41;5044798;28;20036;-46
2023/11/29 07:15:39;;;;;;;2.03;0.60;;;;;;;7.20;58.97;100257.66;5047062;28;20033;-47
2023/11/29 07:18:05;;;;;;;6.60;0.82;;;;;;;7.11;60.21;100258.38;5046421;28;20468;-47
2023/11/29 07:20:31;;;;;;;3.05;0.80;;;;;;;6.97;61.17;100267.63;5046815;28;20411;-45
2023/11/29 07:22:56;;;;;;;3.58;1.00;;;;;;;6.99;62.57;100265.94;5047150;28;20037;-49
2023/11/29 07:25:21;;;;;;;5.75;1.00;;;;;;;7.07;62.84;100268.69;5046635;28;20034;-49
2023/11/29 07:27:47;;;;;;;2.75;1.00;;;;;;;7.21;62.37;100275.84;5047309;28;20072;-46
2023/11/29 07:30:12;;;;;;;4.18;1.17;;;;;;;7.36;62.24;100277.81;5046147;28;20614;-49
2023/11/29 07:32:38;;;;;;;6.88;1.50;;;;;;;7.25;63.17;100282.84;5046678;28;20033;-52
2023/11/29 07:35:04;;;;;;;4.65;1.27;;;;;;;6.76;63.31;100281.06;5046208;28;20052;-49
2023/11/29 07:37:30;;;;;;;8.45;1.48;;;;;;;7.02;61.50;100286.72;5049012;28;20085;-44
2023/11/29 07:39:56;;;;;;;7.50;1.17;;;;;;;7.43;59.46;100294.38;5048388;28;20128;-49
2023/11/29 07:42:21;;;;;;;6.88;1.60;;;;;;;7.97;58.24;100291.75;5049756;28;20447;-44
2023/11/29 07:44:46;;;;;;;6.10;1.40;;;;;;;7.86;58.66;100298.50;5047098;28;20037;-47
2023/11/29 07:47:11;;;;;;;9.63;1.55;;;;;;;7.95;58.56;100299.50;5045882;28;20064;-47
2023/11/29 07:49:37;;;;;;;4.45;1.27;;;;;;;7.96;59.11;100301.25;5046324;28;20055;-46
2023/11/29 07:52:03;;;;;;;9.55;1.73;;;;;;;7.25;60.36;100313.09;5045986;28;20044;-54
2023/11/29 07:54:29;;;;;;;4.80;1.48;;;;;;;7.89;59.03;100314.13;5046227;28;20056;-52
2023/11/29 07:56:54;;;;;;;5.78;1.48;;;;;;;7.86;59.01;100324.47;5045817;28;20579;-45
2023/11/29 07:59:19;;;;;;;6.57;1.40;;;;;;;7.67;59.50;100331.97;5045766;28;20033;-48
2023/11/29 08:01:45;;;;;;;11.27;1.48;;;;;;;7.83;59.56;100338.25;5046258;28;20488;-51
2023/11/29 08:04:10;;;;;;;7.53;1.58;;;;;;;7.83;59.58;100343.44;5045202;28;20124;-47
2023/11/29 08:06:36;;;;;;;5.47;1.40;;;;;;;7.84;59.29;100352.09;5046032;28;20462;-50
2023/11/29 08:09:01;;;;;;;8.20;1.60;;;;;;;7.85;60.37;100365.13;5045237;28;20034;-46
2023/11/29 08:11:27;;;;;;;7.60;1.80;;;;;;;7.56;61.75;100358.56;5046117;28;20041;-47
2023/11/29 08:13:52;;;;;;;8.18;2.03;;;;;;;7.75;61.54;100374.44;5045873;28;20140;-45
2023/11/29 08:16:18;;;;;;;8.45;2.10;;;;;;;7.89;61.27;100374.69;5037654;28;20064;-47
2023/11/29 08:18:45;;;;;;;4.43;1.70;;;;;;;8.10;60.59;100376.75;5032553;28;20075;-47
2023/11/29 08:21:10;;;;;;;8.57;2.05;;;;;;;8.31;59.93;100382.28;5031960;28;20105;-49
2023/11/29 08:23:36;;;;;;;7.10;1.70;;;;;;;8.08;60.99;100392.31;5032580;28;20496;-49
2023/11/29 08:26:01;;;;;;;4.53;1.75;;;;;;;8.12;61.24;100398.41;5031925;28;20057;-46
2023/11/29 08:28:26;;;;;;;8.07;1.70;;;;;;;7.93;61.86;100410.22;5032417;28;20036;-45
2023/11/29 08:30:52;;;;;;;6.03;1.80;;;;;;;7.84;62.33;100410.06;5032580;28;20040;-49
2023/11/29 08:33:17;;;;;;;8.15;1.67;;;;;;;7.70;63.06;100412.44;5031922;28;20061;-47
2023/11/29 08:35:43;;;;;;;4.38;1.48;;;;;;;7.19;63.85;100404.59;5032474;28;20168;-48
2023/11/29 08:38:09;;;;;;;4.07;1.30;;;;;;;7.25;64.14;100401.22;5032062;28;20077;-45
2023/11/29 08:40:35;;;;;;;9.00;1.63;;;;;;;7.34;63.87;100396.19;5032186;28;20102;-47
2023/11/29 08:43:05;;;;;;;7.85;1.35;;;;;;;7.30;63.70;100403.06;5031726;28;20227;-45
2023/11/29 08:45:31;;;;;;;8.60;1.70;;;;;;;7.40;63.10;100392.84;5032132;28;20029;-47
2023/11/29 08:47:56;;;;;;;6.15;1.83;;;;;;;7.48;62.66;100393.88;5031979;28;20437;-46
2023/11/29 08:50:21;;;;;;;3.88;1.58;;;;;;;7.44;62.71;100400.69;5031988;28;20400;-47
2023/11/29 08:52:49;;;;;;;7.22;1.60;;;;;;;7.41;63.00;100392.88;5032260;28;20052;-49
2023/11/29 08:55:15;;;;;;;4.82;1.45;;;;;;;7.41;63.31;100384.22;5031730;28;20029;-45
2023/11/29 08:57:40;;;;;;;3.80;1.60;;;;;;;7.45;63.80;100388.59;5030735;28;20048;-45
2023/11/29 09:00:07;;;;;;;5.32;1.80;;;;;;;7.52;64.18;100388.75;5031777;28;20030;-48
2023/11/29 09:02:32;;;;;;;7.38;1.65;;;;;;;7.63;64.66;100391.53;5033595;28;20034;-47
2023/11/29 09:04:58;;;;;;;4.50;1.88;;;;;;;7.74;65.40;100396.06;5032447;28;20038;-47
2023/11/29 09:07:23;;;;;;;7.55;2.13;;;;;;;7.87;66.13;100398.88;5033255;28;20603;-45
2023/11/29 09:09:49;;;;;;;3.45;1.67;;;;;;;8.18;66.32;100405.41;5032436;28;20033;-44
2023/11/29 09:12:18;;;;;;;5.20;1.70;;;;;;;8.59;65.93;100403.47;5032284;28;20065;-45
2023/11/29 09:14:43;;;;;;;4.72;1.70;;;;;;;8.27;65.34;100422.03;5031356;28;20049;-45
2023/11/29 09:17:10;;;;;;;5.10;1.85;;;;;;;8.62;64.31;100414.78;5031815;28;20083;-45
2023/11/29 09:19:35;;;;;;;5.43;1.70;;;;;;;8.64;63.05;100423.47;5031665;28;20170;-48
2023/11/29 09:22:03;;;;;;;4.68;1.50;;;;;;;8.06;62.93;100422.56;5030604;28;20095;-46
2023/11/29 09:24:29;;;;;;;5.53;1.52;;;;;;;7.84;62.81;100417.84;5031254;28;20408;-49
2023/11/29 09:26:54;;;;;;;5.07;1.50;;;;;;;7.61;63.95;100424.38;5030265;28;20041;-51
2023/11/29 09:29:20;;;;;;;7.65;1.77;;;;;;;7.65;63.96;100423.56;5030457;28;20026;-46
2023/11/29 09:31:46;;;;;;;5.22;1.60;;;;;;;7.21;64.75;100422.72;5030917;28;20037;-45
2023/11/29 09:34:12;;;;;;;5.65;1.58;;;;;;;7.40;64.44;100419.66;5030649;28;20030;-47
2023/11/29 09:36:37;;;;;;;5.43;1.50;;;;;;;7.74;63.07;100419.41;5031445;28;20557;-47
2023/11/29 09:39:12;;;;;;;3.75;1.58;;;;;;;7.78;62.89;100422.94;5030496;28;20487;-45
2023/11/29 09:41:37;;;;;;;;;;;;;;;7.77;63.52;100417.72;5031440;28;20424;-46
2023/11/29 09:44:03;;;;;;;6.72;1.92;;;;;;;7.77;63.94;100418.59;5028887;28;19920;-44
2023/11/29 09:46:30;;;;;;;7.30;1.77;;;;;;;7.93;64.49;100422.34;5030716;28;20029;-46
2023/11/29 09:48:56;;;;;;;8.73;1.80;;;;;;;8.17;64.91;100427.94;5030675;28;20037;-50
2023/11/29 09:51:21;;;;;;;4.00;1.60;;;;;;;8.41;64.57;100411.88;5030788;28;20109;-50
2023/11/29 09:53:47;;;;;;;6.68;1.50;;;;;;;8.88;63.89;100402.13;5031193;28;20180;-46
2023/11/29 09:56:12;;;;;;;3.88;1.42;;;;;;;9.03;62.80;100402.31;5030532;28;20096;-46
2023/11/29 09:58:38;;;;;;;5.75;1.40;;;;;;;8.77;60.89;100406.31;5030430;28;20464;-49
2023/11/29 10:01:03;;;;;;;7.18;1.55;;;;;;;8.65;60.47;100419.16;5029815;28;20091;-49
2023/11/29 10:03:29;;;;;;;8.88;1.70;;;;;;;8.71;60.81;100422.72;5030546;28;20025;-47
2023/11/29 10:05:54;;;;;;;5.60;1.60;;;;;;;8.88;59.28;100443.72;5029881;28;20081;-46
2023/11/29 10:08:19;;;;;;;6.85;1.40;;;;;;;8.41;58.95;100459.53;5030496;28;20049;-45
2023/11/29 10:10:46;;;;;;;5.25;1.40;;;;;;;8.22;59.65;100459.16;5031013;28;20487;-45
2023/11/29 10:13:13;;;;;;;4.78;1.48;;;;;;;8.11;60.95;100454.66;5030199;28;20103;-46
2023/11/29 10:15:44;;;;;;;5.03;1.50;;;;;;;7.85;60.90;100455.06;5030508;28;20121;-45
2023/11/29 10:18:09;;;;;;;6.65;1.50;;;;;;;7.50;62.47;100447.50;5030044;28;20034;-48
2023/11/29 10:20:35;;;;;;;3.90;1.48;;;;;;;7.90;61.61;100443.03;5030077;28;20132;-50
2023/11/29 10:23:00;;;;;;;7.38;1.60;;;;;;;7.88;60.96;100447.31;5029732;28;20511;-48
2023/11/29 10:25:26;;;;;;;3.35;1.40;;;;;;;7.87;61.30;100446.44;5030324;28;20033;-45
2023/11/29 10:27:51;;;;;;;3.97;1.27;;;;;;;7.77;61.49;100441.94;5030390;28;20041;-45
2023/11/29 10:30:20;;;;;;;6.15;1.83;;;;;;;7.65;62.46;100442.59;5029425;28;20095;-46
2023/11/29 10:32:46;;;;;;;4.20;1.70;;;;;;;7.65;63.04;100433.94;5030398;28;20050;-49
2023/11/29 10:35:13;;;;;;;3.70;1.70;;;;;;;7.70;63.41;100438.38;5029915;28;20040;-45
2023/11/29 10:37:51;;;;;;;5.55;1.50;;;;;;;7.68;63.77;100431.44;5030347;28;20033;-43
2023/11/29 10:40:17;;;;;;;7.10;1.52;;;;;;;7.49;63.84;100432.81;5028974;28;20453;-47
2023/11/29 10:42:45;;;;;;;5.43;1.60;;;;;;;7.62;63.05;100436.50;5030406;28;20044;-44
2023/11/29 10:45:16;;;;;;;6.13;1.20;;;;;;;7.39;64.45;100435.19;5030182;28;20396;-45
2023/11/29 10:48:03;;;;;;;2.53;1.30;;;;;;;7.81;64.12;100437.72;5030110;28;20037;-45
2023/11/29 10:50:30;;;;;;;3.03;1.30;;;;;;;7.79;64.24;100441.97;5028937;28;20037;-48
2023/11/29 10:52:56;;;;;;;8.38;1.30;;;;;;;7.45;64.81;100438.75;5029134;28;20059;-49
2023/11/29 10:55:22;;;;;;;2.88;1.10;;;;;;;7.56;64.70;100445.03;5029539;28;20479;-47
2023/11/29 10:58:13;;;;;;;3.85;1.10;;;;;;;8.25;64.38;100448.81;5029792;28;20063;-45
2023/11/29 11:00:43;;;;;;;2.63;1.38;;;;;;;8.41;63.51;100443.94;5029597;28;20038;-45
2023/11/29 11:03:08;;;;;;;5.43;1.30;;;;;;;8.55;61.63;100431.13;5029066;28;20037;-46
2023/11/29 11:05:34;;;;;;;4.63;1.60;;;;;;;8.42;63.61;100439.56;5029324;28;20038;-45
2023/11/29 11:07:59;;;;;;;3.85;1.27;;;;;;;8.73;62.36;100426.19;5029183;28;20069;-46
2023/11/29 11:10:26;;;;;;;4.15;1.10;;;;;;;8.64;61.87;100433.00;5029218;28;20116;-48
2023/11/29 11:12:53;;;;;;;7.25;1.15;;;;;;;8.17;62.55;100437.44;5030049;28;20041;-44
2023/11/29 11:15:22;;;;;;;4.47;1.30;;;;;;;7.98;63.42;100441.47;5029723;28;20053;-44
2023/11/29 11:18:06;;;;;;;4.40;1.33;;;;;;;8.41;64.07;100443.94;5029353;28;20059;-51
2023/11/29 11:20:40;;;;;;;4.82;1.30;;;;;;;8.91;62.89;100433.34;5028958;28;20037;-46
2023/11/29 11:23:06;;;;;;;3.65;1.20;;;;;;;8.44;61.23;100443.97;5029124;28;20051;-46
2023/11/29 11:25:31;;;;;;;3.17;1.10;;;;;;;8.80;59.19;100429.75;5029290;28;20463;-49
2023/11/29 11:27:57;;;;;;;3.40;1.08;;;;;;;8.46;59.76;100433.59;5029119;28;20065;-45